Time;durP1;ratioP1;P1;durP2;ratioP2;P2;SDS_P1;SDS_P2;PMS_P1;PMS_P2;Temp;Humidity;BMP_temperature;BMP_pressure;BME280_temperature;BME280_humidity;BME280_pressure;Samples;Min_cycle;Max_cycle;Signal;HPM_P1;HPM_P2
2024/03/02 00:02:02;;;;;;;5.38;3.20;;;11.60;96.80;;;;;;5104817;28;20033;-70
2024/03/02 00:04:27;;;;;;;4.93;2.50;;;11.60;96.60;;;;;;5087501;28;20055;-70
2024/03/02 00:06:54;;;;;;;5.93;3.20;;;11.60;96.70;;;;;;5096934;28;20042;-70
2024/03/02 00:09:20;;;;;;;5.53;3.00;;;11.50;96.70;;;;;;5100655;28;20039;-70
2024/03/02 00:11:46;;;;;;;4.78;3.03;;;11.50;96.80;;;;;;5101135;28;20035;-70
2024/03/02 00:14:12;;;;;;;7.18;2.90;;;11.50;96.90;;;;;;5107569;28;20035;-70
2024/03/02 00:16:38;;;;;;;6.38;2.75;;;11.40;96.70;;;;;;5104965;28;20105;-70
2024/03/02 00:19:05;;;;;;;3.47;2.47;;;11.40;96.60;;;;;;5102796;28;20028;-70
2024/03/02 00:21:31;;;;;;;3.60;2.38;;;11.40;96.60;;;;;;5089091;28;20028;-70
2024/03/02 00:23:58;;;;;;;6.50;3.63;;;11.30;96.70;;;;;;5087912;27;20089;-71
2024/03/02 00:26:23;;;;;;;6.22;4.03;;;11.30;96.70;;;;;;5096145;28;20032;-70
2024/03/02 00:28:50;;;;;;;6.75;3.15;;;11.40;96.90;;;;;;5105407;28;20036;-71
2024/03/02 00:31:19;;;;;;;6.03;3.58;;;11.30;96.80;;;;;;5089054;28;20487;-70
2024/03/02 00:33:49;;;;;;;7.07;3.90;;;11.30;97.00;;;;;;5086034;28;20050;-70
2024/03/02 00:36:24;;;;;;;9.27;4.43;;;11.30;96.80;;;;;;5108672;28;20035;-70
2024/03/02 00:38:51;;;;;;;7.40;3.70;;;11.30;96.90;;;;;;5102255;28;20126;-70
2024/03/02 00:41:29;;;;;;;6.63;4.10;;;11.40;96.80;;;;;;5090387;28;20036;-70
2024/03/02 00:44:06;;;;;;;7.68;4.60;;;11.30;96.80;;;;;;5087034;28;20126;-70
2024/03/02 00:46:36;;;;;;;8.73;4.45;;;11.40;96.70;;;;;;5088488;28;20031;-70
2024/03/02 00:49:04;;;;;;;6.97;4.10;;;11.40;96.80;;;;;;5093356;28;20051;-70
2024/03/02 00:51:32;;;;;;;7.28;4.43;;;11.30;96.50;;;;;;5087626;28;20038;-70
2024/03/02 00:54:04;;;;;;;6.72;3.47;;;11.40;96.80;;;;;;5087034;28;20414;-71
2024/03/02 00:56:30;;;;;;;9.85;4.40;;;11.30;96.60;;;;;;5101300;28;20038;-70
2024/03/02 00:58:56;;;;;;;6.20;3.95;;;11.30;96.60;;;;;;5101211;28;20039;-70
2024/03/02 01:01:23;;;;;;;8.35;4.43;;;11.30;96.80;;;;;;5093164;28;20482;-70
2024/03/02 01:03:48;;;;;;;7.53;4.32;;;11.40;96.80;;;;;;5122739;27;20031;-70
2024/03/02 01:06:17;;;;;;;5.70;3.63;;;11.30;96.80;;;;;;5113696;27;20027;-70
2024/03/02 01:08:43;;;;;;;10.02;4.50;;;11.30;96.60;;;;;;5117281;27;20120;-70
2024/03/02 01:11:09;;;;;;;5.78;4.28;;;11.30;96.70;;;;;;5111472;27;20108;-70
2024/03/02 01:13:35;;;;;;;7.28;4.18;;;11.30;96.60;;;;;;5097803;27;20062;-71
2024/03/02 01:16:01;;;;;;;7.53;4.20;;;11.30;96.50;;;;;;5111141;28;20092;-70
2024/03/02 01:18:27;;;;;;;7.22;4.28;;;11.30;96.70;;;;;;5098110;28;20070;-70
2024/03/02 01:20:52;;;;;;;6.88;4.10;;;11.30;96.50;;;;;;5115762;27;20068;-70
2024/03/02 01:23:24;;;;;;;6.57;4.50;;;11.40;96.50;;;;;;5092574;28;20123;-70
2024/03/02 01:25:51;;;;;;;8.60;3.72;;;11.40;96.40;;;;;;5091622;28;20036;-70
2024/03/02 01:28:18;;;;;;;6.32;4.18;;;11.40;96.40;;;;;;5104401;28;20035;-70
2024/03/02 01:30:44;;;;;;;6.88;4.20;;;11.40;96.40;;;;;;5104608;28;20094;-70
2024/03/02 01:33:13;;;;;;;8.07;4.35;;;11.30;96.50;;;;;;5091519;28;20461;-70
2024/03/02 01:35:39;;;;;;;7.90;3.97;;;11.30;96.40;;;;;;5092352;28;20074;-70
2024/03/02 01:38:06;;;;;;;7.13;4.43;;;11.30;96.60;;;;;;5097075;28;20448;-70
2024/03/02 01:40:33;;;;;;;6.47;3.90;;;11.30;96.50;;;;;;5109322;28;20041;-70
2024/03/02 01:42:59;;;;;;;7.97;4.07;;;11.20;96.40;;;;;;5094231;28;20032;-70
2024/03/02 01:45:24;;;;;;;6.75;4.22;;;11.20;96.60;;;;;;5090939;28;20034;-70
2024/03/02 01:47:50;;;;;;;8.30;4.65;;;11.20;96.50;;;;;;5096566;28;20063;-70
2024/03/02 01:50:24;;;;;;;7.28;4.50;;;11.20;96.60;;;;;;5107136;28;20035;-70
2024/03/02 01:52:53;;;;;;;6.47;3.70;;;11.10;96.70;;;;;;5091604;28;20411;-70
2024/03/02 01:55:19;;;;;;;6.22;4.30;;;11.10;96.70;;;;;;5093656;28;20039;-70
2024/03/02 01:57:44;;;;;;;10.40;4.32;;;11.10;96.90;;;;;;5085102;28;20082;-70
2024/03/02 02:00:11;;;;;;;7.40;4.10;;;11.20;96.80;;;;;;5094130;28;20073;-70
2024/03/02 02:02:44;;;;;;;7.32;4.78;;;11.10;96.60;;;;;;5100347;28;20032;-70
2024/03/02 02:05:10;;;;;;;7.32;4.22;;;11.10;96.80;;;;;;5090565;28;20050;-70
2024/03/02 02:07:35;;;;;;;7.63;4.13;;;11.10;96.70;;;;;;5094255;28;20032;-70
2024/03/02 02:10:02;;;;;;;7.15;3.58;;;11.10;96.70;;;;;;5094045;27;20147;-70
2024/03/02 02:12:31;;;;;;;8.02;4.20;;;11.10;96.80;;;;;;5109487;28;20051;-70
2024/03/02 02:14:56;;;;;;;6.22;3.97;;;11.20;96.90;;;;;;5098542;28;20386;-70
2024/03/02 02:17:22;;;;;;;8.00;4.45;;;11.10;96.90;;;;;;5088483;28;20024;-70
2024/03/02 02:19:48;;;;;;;6.90;3.42;;;11.10;96.70;;;;;;5092326;28;20028;-70
2024/03/02 02:22:13;;;;;;;8.93;4.10;;;11.20;96.50;;;;;;5089659;28;20477;-70
2024/03/02 02:24:42;;;;;;;10.60;4.32;;;11.20;96.80;;;;;;5094021;28;20434;-70
2024/03/02 02:27:08;;;;;;;6.35;3.53;;;11.10;96.60;;;;;;5095052;28;20027;-71
2024/03/02 02:29:34;;;;;;;6.95;4.10;;;11.20;96.60;;;;;;5091097;28;20070;-70
2024/03/02 02:32:00;;;;;;;7.47;3.58;;;11.10;96.70;;;;;;5093757;28;20032;-70
2024/03/02 02:34:26;;;;;;;8.45;3.83;;;11.20;96.60;;;;;;5094598;28;20082;-70
2024/03/02 02:36:52;;;;;;;6.90;3.03;;;11.20;96.50;;;;;;5092412;28;20111;-70
2024/03/02 02:39:21;;;;;;;6.15;3.47;;;11.20;96.40;;;;;;5101870;28;20031;-70
2024/03/02 02:41:46;;;;;;;7.10;3.53;;;11.30;96.20;;;;;;5090436;28;20032;-70
2024/03/02 02:44:12;;;;;;;6.35;3.55;;;11.30;96.20;;;;;;5097174;28;20042;-70
2024/03/02 02:46:41;;;;;;;7.63;3.40;;;11.30;96.20;;;;;;5099444;28;20025;-70
2024/03/02 02:49:06;;;;;;;4.30;2.80;;;11.40;96.40;;;;;;5105255;28;20554;-70
2024/03/02 02:51:32;;;;;;;6.85;3.75;;;11.30;96.10;;;;;;5097384;28;20040;-70
2024/03/02 02:53:58;;;;;;;5.22;3.28;;;11.30;96.30;;;;;;5106967;28;20084;-70
2024/03/02 02:56:24;;;;;;;3.90;2.40;;;11.30;96.30;;;;;;5094765;28;20099;-70
2024/03/02 02:58:49;;;;;;;5.13;3.55;;;11.30;96.30;;;;;;5104575;28;20472;-70
2024/03/02 03:01:17;;;;;;;4.90;3.13;;;11.40;96.40;;;;;;5099934;28;20032;-70
2024/03/02 03:03:43;;;;;;;7.28;3.33;;;11.30;96.10;;;;;;5105703;28;20032;-70
2024/03/02 03:06:09;;;;;;;5.40;3.00;;;11.30;96.10;;;;;;5090286;28;20032;-70
2024/03/02 03:08:35;;;;;;;5.03;3.08;;;11.30;96.30;;;;;;5101562;28;20032;-70
2024/03/02 03:11:01;;;;;;;4.30;2.72;;;11.40;96.00;;;;;;5101633;27;20043;-70
2024/03/02 03:13:26;;;;;;;5.55;2.42;;;11.40;96.20;;;;;;5100349;28;20022;-70
2024/03/02 03:15:52;;;;;;;6.13;3.35;;;11.40;96.00;;;;;;5104225;28;20070;-70
2024/03/02 03:18:18;;;;;;;5.72;2.92;;;11.50;95.90;;;;;;5103804;28;20035;-70
2024/03/02 03:20:44;;;;;;;5.15;2.70;;;11.40;95.80;;;;;;5091318;28;20483;-70
2024/03/02 03:23:15;;;;;;;8.50;3.25;;;11.50;95.60;;;;;;5092174;28;20031;-70
2024/03/02 03:25:41;;;;;;;5.85;2.92;;;11.50;95.50;;;;;;5099848;28;20035;-70
2024/03/02 03:28:09;;;;;;;7.97;3.47;;;11.60;95.50;;;;;;5096210;28;20068;-70
2024/03/02 03:30:36;;;;;;;7.22;3.85;;;11.60;95.60;;;;;;5114458;27;20070;-71
2024/03/02 03:33:02;;;;;;;7.22;3.17;;;11.60;95.50;;;;;;5110539;27;20047;-71
2024/03/02 03:35:28;;;;;;;5.13;3.05;;;11.60;95.60;;;;;;5099436;27;20020;-71
2024/03/02 03:37:53;;;;;;;4.50;2.38;;;11.70;95.50;;;;;;5107148;27;20415;-71
2024/03/02 03:40:20;;;;;;;9.93;3.78;;;11.70;95.50;;;;;;5103493;28;20111;-71
2024/03/02 03:42:45;;;;;;;5.03;3.50;;;11.70;95.60;;;;;;5092646;28;20111;-71
2024/03/02 03:45:11;;;;;;;6.80;4.00;;;11.60;95.30;;;;;;5100481;28;20172;-71
2024/03/02 03:47:36;;;;;;;6.80;3.05;;;11.70;95.40;;;;;;5119307;27;20019;-71
2024/03/02 03:50:05;;;;;;;8.40;3.30;;;11.70;95.30;;;;;;5102265;28;20134;-72
2024/03/02 03:52:31;;;;;;;5.05;3.15;;;11.70;95.40;;;;;;5091383;28;20032;-71
2024/03/02 03:54:56;;;;;;;10.07;3.30;;;11.70;95.20;;;;;;5112661;27;20058;-71
2024/03/02 03:57:25;;;;;;;6.63;3.42;;;11.70;95.40;;;;;;5103624;27;20028;-71
2024/03/02 03:59:50;;;;;;;8.73;2.90;;;11.80;95.40;;;;;;5113968;27;20043;-71
2024/03/02 04:02:16;;;;;;;5.47;3.05;;;11.80;95.30;;;;;;5100572;27;20020;-71
2024/03/02 04:04:41;;;;;;;4.85;3.00;;;11.70;95.40;;;;;;5110829;27;20507;-71
2024/03/02 04:07:07;;;;;;;4.78;2.90;;;11.70;95.50;;;;;;5098523;28;20066;-71
2024/03/02 04:09:33;;;;;;;5.82;3.20;;;11.70;95.40;;;;;;5088310;28;20028;-71
2024/03/02 04:11:58;;;;;;;6.40;3.05;;;11.60;95.30;;;;;;5095851;27;20035;-71
2024/03/02 04:14:24;;;;;;;2.97;2.05;;;11.60;95.20;;;;;;5095152;28;20031;-71
2024/03/02 04:16:53;;;;;;;5.38;2.58;;;11.70;95.30;;;;;;5105785;28;20027;-71
2024/03/02 04:19:18;;;;;;;4.28;2.72;;;11.60;95.70;;;;;;5097748;28;20085;-71
2024/03/02 04:21:44;;;;;;;4.63;2.75;;;11.50;95.60;;;;;;5088472;28;20040;-71
2024/03/02 04:24:10;;;;;;;4.97;2.47;;;11.50;95.80;;;;;;5099057;28;20047;-71
2024/03/02 04:26:35;;;;;;;4.78;2.38;;;11.50;95.50;;;;;;5087778;28;20035;-71
2024/03/02 04:29:01;;;;;;;5.60;2.58;;;11.50;95.60;;;;;;5097757;27;20111;-70
2024/03/02 04:31:27;;;;;;;4.50;2.50;;;11.50;95.60;;;;;;5097703;28;20028;-71
2024/03/02 04:33:54;;;;;;;7.75;3.00;;;11.50;95.40;;;;;;5095709;28;20036;-71
2024/03/02 04:36:19;;;;;;;5.75;2.85;;;11.60;95.60;;;;;;5090026;28;20122;-71
2024/03/02 04:38:48;;;;;;;5.20;2.70;;;11.50;95.70;;;;;;5111606;28;20108;-71
2024/03/02 04:41:13;;;;;;;7.78;3.03;;;11.50;95.90;;;;;;5089010;28;20132;-71
2024/03/02 04:43:39;;;;;;;7.60;2.60;;;11.50;95.90;;;;;;5087453;28;20119;-71
2024/03/02 04:46:06;;;;;;;6.20;2.58;;;11.50;95.90;;;;;;5098116;28;20078;-71
2024/03/02 04:48:32;;;;;;;4.72;2.65;;;11.50;95.70;;;;;;5103451;28;20028;-71
2024/03/02 04:50:58;;;;;;;6.47;2.85;;;11.40;95.60;;;;;;5088766;28;20040;-71
2024/03/02 04:53:23;;;;;;;5.75;2.55;;;11.50;95.60;;;;;;5091316;28;20620;-71
2024/03/02 04:56:20;;;;;;;4.57;2.75;;;11.50;95.50;;;;;;5088667;28;20039;-72
2024/03/02 04:58:44;;;;;;;10.05;3.10;;;11.40;95.50;;;;;;5092952;28;20483;-71
2024/03/02 05:01:10;;;;;;;6.68;3.17;;;11.50;95.50;;;;;;5102051;28;20062;-71
2024/03/02 05:03:36;;;;;;;9.15;3.25;;;11.50;95.40;;;;;;5099655;28;20391;-71
2024/03/02 05:06:01;;;;;;;6.95;3.20;;;11.50;95.30;;;;;;5086882;28;20111;-72
2024/03/02 05:08:27;;;;;;;5.35;3.40;;;11.50;95.50;;;;;;5093985;28;20034;-71
2024/03/02 05:10:53;;;;;;;7.93;3.30;;;11.60;95.30;;;;;;5104457;28;20047;-71
2024/03/02 05:13:20;;;;;;;4.43;2.60;;;11.50;95.40;;;;;;5095248;28;20020;-71
2024/03/02 05:15:46;;;;;;;4.75;3.10;;;11.50;95.40;;;;;;5102954;28;20031;-71
2024/03/02 05:18:12;;;;;;;5.03;2.60;;;11.50;95.30;;;;;;5091964;28;20024;-71
2024/03/02 05:20:37;;;;;;;5.60;2.60;;;11.50;95.10;;;;;;5094551;28;20383;-71
2024/03/02 05:23:03;;;;;;;4.63;2.63;;;11.60;95.40;;;;;;5096325;28;20074;-71
2024/03/02 05:25:29;;;;;;;3.72;2.38;;;11.60;95.20;;;;;;5096051;28;20028;-71
2024/03/02 05:27:54;;;;;;;5.78;3.17;;;11.60;95.20;;;;;;5086671;28;20086;-71
2024/03/02 05:30:20;;;;;;;6.30;2.97;;;11.60;95.30;;;;;;5087496;28;20055;-71
2024/03/02 05:32:46;;;;;;;5.13;2.65;;;11.60;95.20;;;;;;5094896;28;20039;-71
2024/03/02 05:35:12;;;;;;;4.00;2.30;;;11.60;95.20;;;;;;5100921;28;20111;-71
2024/03/02 05:37:39;;;;;;;6.72;2.97;;;11.60;95.00;;;;;;5106010;28;20074;-71
2024/03/02 05:40:08;;;;;;;3.88;2.42;;;11.60;95.20;;;;;;5095301;28;20048;-71
2024/03/02 05:42:33;;;;;;;5.05;2.05;;;11.70;95.20;;;;;;5094504;28;20103;-72
2024/03/02 05:44:59;;;;;;;3.70;2.03;;;11.60;95.10;;;;;;5094070;28;20123;-71
2024/03/02 05:47:25;;;;;;;6.38;2.65;;;11.60;95.10;;;;;;5104669;28;20421;-71
2024/03/02 05:49:50;;;;;;;4.38;2.75;;;11.60;95.10;;;;;;5088465;28;20051;-72
2024/03/02 05:52:16;;;;;;;4.55;2.80;;;11.60;95.00;;;;;;5105264;28;20059;-71
2024/03/02 05:54:41;;;;;;;6.93;3.15;;;11.60;94.80;;;;;;5089207;28;20058;-71
2024/03/02 05:58:02;;;;;;;4.28;2.65;;;11.70;94.70;;;;;;5091013;28;20077;-71
2024/03/02 05:59:56;;;;;;;5.50;2.55;;;11.70;94.70;;;;;;5079204;28;20051;-71
2024/03/02 06:02:22;;;;;;;7.03;2.58;;;11.80;94.70;;;;;;5092116;28;20055;-71
2024/03/02 06:04:47;;;;;;;5.13;2.70;;;11.80;94.60;;;;;;5103548;28;20036;-71
2024/03/02 06:07:13;;;;;;;5.85;2.75;;;11.90;94.50;;;;;;5091891;28;20028;-71
2024/03/02 06:09:38;;;;;;;8.80;2.40;;;11.90;94.40;;;;;;5101172;28;20399;-71
2024/03/02 06:12:04;;;;;;;5.10;2.47;;;12.00;94.30;;;;;;5105182;27;20031;-71
2024/03/02 06:14:33;;;;;;;3.70;2.33;;;11.90;94.30;;;;;;5100837;28;20138;-71
2024/03/02 06:16:59;;;;;;;4.32;2.35;;;12.00;94.30;;;;;;5098233;28;20119;-71
2024/03/02 06:19:25;;;;;;;5.32;2.80;;;12.00;94.30;;;;;;5104410;28;20024;-71
2024/03/02 06:21:50;;;;;;;5.43;2.35;;;12.00;94.30;;;;;;5101230;28;20047;-71
2024/03/02 06:24:16;;;;;;;4.32;2.30;;;12.00;94.10;;;;;;5092344;28;20062;-71
2024/03/02 06:26:42;;;;;;;4.10;2.00;;;12.00;94.10;;;;;;5091667;28;20036;-71
2024/03/02 06:29:07;;;;;;;6.32;2.30;;;12.00;94.10;;;;;;5089622;28;20016;-72
2024/03/02 06:31:33;;;;;;;5.97;2.60;;;12.10;94.00;;;;;;5090132;28;20020;-72
2024/03/02 06:33:58;;;;;;;4.45;2.45;;;12.10;94.00;;;;;;5100146;28;20035;-72
2024/03/02 06:36:24;;;;;;;5.15;2.38;;;12.10;93.90;;;;;;5102108;28;20774;-71
2024/03/02 06:38:50;;;;;;;6.85;2.40;;;12.10;93.90;;;;;;5111135;27;20158;-71
2024/03/02 06:41:15;;;;;;;3.75;2.30;;;12.10;93.90;;;;;;5101850;28;20036;-72
2024/03/02 06:43:41;;;;;;;4.05;2.47;;;12.10;93.80;;;;;;5091251;28;20028;-71
2024/03/02 06:46:09;;;;;;;5.30;2.60;;;12.10;93.90;;;;;;5090754;28;20591;-70
2024/03/02 06:48:35;;;;;;;3.00;1.95;;;12.10;94.20;;;;;;5101275;28;20028;-72
2024/03/02 06:51:01;;;;;;;5.05;2.60;;;12.00;94.10;;;;;;5090684;28;20101;-71
2024/03/02 06:53:27;;;;;;;6.10;2.50;;;12.10;94.00;;;;;;5098919;28;20040;-72
2024/03/02 06:55:53;;;;;;;4.30;2.35;;;12.10;94.00;;;;;;5089828;28;20040;-72
2024/03/02 06:58:18;;;;;;;4.47;2.85;;;12.10;93.90;;;;;;5101410;28;20035;-71
2024/03/02 07:00:44;;;;;;;4.90;2.65;;;12.10;94.00;;;;;;5090344;28;20126;-71
2024/03/02 07:03:10;;;;;;;2.80;2.08;;;12.10;93.90;;;;;;5101966;28;20032;-71
2024/03/02 07:05:35;;;;;;;4.95;2.25;;;12.00;93.90;;;;;;5100953;28;20038;-71
2024/03/02 07:08:02;;;;;;;2.42;1.83;;;12.00;94.00;;;;;;5102965;28;20020;-71
2024/03/02 07:10:28;;;;;;;6.93;2.65;;;12.00;93.90;;;;;;5099177;27;20046;-71
2024/03/02 07:12:54;;;;;;;7.55;3.08;;;12.00;94.10;;;;;;5094108;28;20111;-72
2024/03/02 07:17:54;;;;;;;4.00;2.40;;;12.00;94.10;;;;;;5098776;28;20031;-71
2024/03/02 07:20:19;;;;;;;4.47;2.20;;;12.00;94.50;;;;;;5096026;28;20050;-71
2024/03/02 07:22:46;;;;;;;9.60;3.08;;;11.90;94.10;;;;;;5090589;28;20097;-71
2024/03/02 07:25:12;;;;;;;5.70;2.72;;;11.90;94.00;;;;;;5097069;28;20364;-71
2024/03/02 07:27:39;;;;;;;3.35;2.08;;;12.00;93.90;;;;;;5098778;28;20032;-71
2024/03/02 07:30:05;;;;;;;4.38;2.22;;;12.00;93.80;;;;;;5097503;28;20483;-71
2024/03/02 07:32:31;;;;;;;5.95;2.35;;;12.00;93.80;;;;;;5102611;28;20066;-71
2024/03/02 07:35:01;;;;;;;4.50;2.42;;;12.10;93.80;;;;;;5100614;28;20044;-72
2024/03/02 07:37:27;;;;;;;5.00;2.38;;;12.10;93.80;;;;;;5100068;28;20035;-71
2024/03/02 07:39:52;;;;;;;4.93;2.40;;;12.10;93.80;;;;;;5105137;28;20036;-71
2024/03/02 07:42:18;;;;;;;3.53;2.40;;;12.10;93.80;;;;;;5098567;28;20486;-70
2024/03/02 07:44:45;;;;;;;7.55;2.60;;;12.10;93.90;;;;;;5108391;28;20471;-71
2024/03/02 07:47:11;;;;;;;6.40;2.50;;;12.10;93.90;;;;;;5099976;28;20073;-71
2024/03/02 07:49:36;;;;;;;3.53;2.03;;;12.10;93.80;;;;;;5092498;28;20024;-72
2024/03/02 07:52:02;;;;;;;5.15;2.28;;;12.10;93.90;;;;;;5094925;28;20084;-70
2024/03/02 07:54:28;;;;;;;3.17;2.22;;;12.10;93.90;;;;;;5095467;28;20047;-71
2024/03/02 07:56:54;;;;;;;6.65;2.83;;;12.20;93.90;;;;;;5095628;28;20118;-71
2024/03/02 07:59:21;;;;;;;6.32;2.85;;;12.10;93.80;;;;;;5097803;28;20024;-71
2024/03/02 08:01:49;;;;;;;4.03;2.20;;;12.20;93.80;;;;;;5102249;28;20394;-71
2024/03/02 08:04:14;;;;;;;5.10;2.30;;;12.20;93.80;;;;;;5109168;28;20036;-71
2024/03/02 08:06:40;;;;;;;4.22;2.40;;;12.20;93.80;;;;;;5101280;28;20073;-71
2024/03/02 08:09:09;;;;;;;5.53;2.55;;;12.20;93.80;;;;;;5100892;28;20054;-71
2024/03/02 08:11:35;;;;;;;5.13;2.58;;;12.20;93.70;;;;;;5111694;27;20174;-71
2024/03/02 08:14:01;;;;;;;4.35;2.38;;;12.30;93.70;;;;;;5094187;28;20115;-72
2024/03/02 08:16:26;;;;;;;8.02;2.95;;;12.30;93.70;;;;;;5089220;28;20035;-71
2024/03/02 08:18:53;;;;;;;7.20;2.67;;;12.30;93.90;;;;;;5107094;28;20036;-71
2024/03/02 08:21:19;;;;;;;3.65;2.03;;;12.30;93.80;;;;;;5097281;28;20050;-71
2024/03/02 08:23:44;;;;;;;3.88;2.20;;;12.30;93.90;;;;;;5104257;28;20573;-70
2024/03/02 08:26:11;;;;;;;3.60;2.25;;;12.30;93.90;;;;;;5104353;28;20085;-71
2024/03/02 08:28:37;;;;;;;6.28;2.45;;;12.30;93.90;;;;;;5104053;28;20028;-71
2024/03/02 08:31:03;;;;;;;3.72;2.22;;;12.20;94.20;;;;;;5103150;28;20092;-71
2024/03/02 08:33:29;;;;;;;3.00;2.00;;;12.20;94.10;;;;;;5103427;28;20577;-71
2024/03/02 08:35:55;;;;;;;2.33;1.80;;;12.20;94.20;;;;;;5097371;28;20138;-71
2024/03/02 08:38:21;;;;;;;2.55;1.52;;;12.20;94.40;;;;;;5105892;28;20383;-70
2024/03/02 08:40:47;;;;;;;2.88;1.90;;;12.20;94.10;;;;;;5092272;28;20036;-71
2024/03/02 08:43:13;;;;;;;4.13;1.67;;;12.20;94.10;;;;;;5091370;28;20082;-70
2024/03/02 08:45:39;;;;;;;7.90;3.13;;;12.20;94.40;;;;;;5099787;28;20453;-71
2024/03/02 08:48:08;;;;;;;3.03;1.38;;;12.20;94.10;;;;;;5100800;28;20028;-71
2024/03/02 08:50:34;;;;;;;3.20;1.40;;;12.20;94.10;;;;;;5098894;28;20484;-71
2024/03/02 08:53:00;;;;;;;4.15;2.20;;;12.30;94.20;;;;;;5089327;28;20024;-71
2024/03/02 08:55:26;;;;;;;5.78;2.00;;;12.30;94.20;;;;;;5096645;28;20476;-71
2024/03/02 08:57:52;;;;;;;3.55;2.13;;;12.30;94.20;;;;;;5094003;28;20160;-72
2024/03/02 09:00:18;;;;;;;1.30;0.82;;;12.30;94.40;;;;;;5097110;28;20032;-72
2024/03/02 09:02:44;;;;;;;5.43;2.53;;;12.20;94.30;;;;;;5094383;28;20036;-71
2024/03/02 09:05:10;;;;;;;2.42;1.42;;;12.30;94.60;;;;;;5093690;28;20097;-72
2024/03/02 09:07:37;;;;;;;1.50;0.95;;;12.20;94.60;;;;;;5092040;28;20028;-71
2024/03/02 09:10:04;;;;;;;2.65;1.35;;;12.20;94.40;;;;;;5092151;28;20051;-69
2024/03/02 09:12:29;;;;;;;2.20;1.02;;;12.20;94.40;;;;;;5092197;28;20082;-72
2024/03/02 09:14:55;;;;;;;1.45;1.20;;;12.20;94.40;;;;;;5096019;28;20466;-72
2024/03/02 09:17:21;;;;;;;2.20;1.13;;;12.20;94.40;;;;;;5096612;28;20030;-71
2024/03/02 09:19:47;;;;;;;0.90;0.85;;;12.10;94.40;;;;;;5086889;28;20047;-72
2024/03/02 09:22:13;;;;;;;1.30;1.17;;;12.20;94.50;;;;;;5099253;28;20070;-72
2024/03/02 09:24:38;;;;;;;2.03;1.02;;;12.20;94.50;;;;;;5100436;28;20055;-72
2024/03/02 09:27:04;;;;;;;4.00;1.35;;;12.10;94.60;;;;;;5094901;28;20038;-72
2024/03/02 09:29:30;;;;;;;0.75;0.60;;;12.10;94.70;;;;;;5096767;28;20041;-72
2024/03/02 09:31:56;;;;;;;4.47;1.20;;;12.20;94.70;;;;;;5101962;28;20038;-71
2024/03/02 09:34:22;;;;;;;1.88;1.45;;;12.20;95.20;;;;;;5099155;28;20106;-72
2024/03/02 09:36:48;;;;;;;1.85;1.20;;;12.10;95.30;;;;;;5098304;28;20386;-71
2024/03/02 09:39:14;;;;;;;2.15;1.70;;;12.10;95.10;;;;;;5094375;28;20032;-72
2024/03/02 09:41:40;;;;;;;5.03;1.17;;;12.20;95.60;;;;;;5094784;28;20039;-72
2024/03/02 09:44:06;;;;;;;7.40;1.48;;;12.20;95.10;;;;;;5096330;28;20039;-72
2024/03/02 09:46:32;;;;;;;2.53;0.60;;;12.20;95.50;;;;;;5094324;28;20492;-72
2024/03/02 09:48:58;;;;;;;3.88;1.45;;;12.20;95.20;;;;;;5095672;28;20086;-72
2024/03/02 09:51:24;;;;;;;2.00;1.00;;;12.30;94.90;;;;;;5098575;28;20058;-73
2024/03/02 09:53:50;;;;;;;2.80;1.30;;;12.40;95.10;;;;;;5101818;28;20078;-73
2024/03/02 09:56:16;;;;;;;7.05;1.27;;;12.40;95.50;;;;;;5093098;28;20047;-72
2024/03/02 09:58:43;;;;;;;4.10;1.38;;;12.40;95.60;;;;;;5101638;28;20424;-72
2024/03/02 10:01:10;;;;;;;2.90;1.30;;;12.40;95.80;;;;;;5101230;28;20040;-75
2024/03/02 10:03:37;;;;;;;4.40;1.40;;;12.40;95.40;;;;;;5099635;28;20038;-73
2024/03/02 10:06:28;;;;;;;1.77;1.13;;;12.40;95.70;;;;;;5099948;28;20064;-72
2024/03/02 10:08:54;;;;;;;2.95;1.15;;;12.40;95.40;;;;;;5097796;28;20067;-72
2024/03/02 10:11:36;;;;;;;1.25;0.88;;;12.50;95.20;;;;;;5109615;27;20035;-72
2024/03/02 10:14:10;;;;;;;2.38;1.30;;;12.50;95.10;;;;;;5104851;28;20043;-72
2024/03/02 10:16:43;;;;;;;5.30;1.33;;;12.60;94.80;;;;;;5092528;28;20028;-71
2024/03/02 10:19:20;;;;;;;5.47;0.65;;;12.70;94.70;;;;;;5107459;28;20051;-71
2024/03/02 10:21:54;;;;;;;2.35;1.17;;;12.80;94.60;;;;;;5100330;28;20051;-71
2024/03/02 10:24:22;;;;;;;1.50;1.00;;;12.80;94.50;;;;;;5091501;28;20024;-71
2024/03/02 10:26:51;;;;;;;3.05;1.05;;;12.90;94.70;;;;;;5096752;28;20066;-71
2024/03/02 10:29:17;;;;;;;2.30;0.93;;;12.80;94.60;;;;;;5098408;28;20107;-72
2024/03/02 10:31:46;;;;;;;1.67;1.10;;;12.90;94.60;;;;;;5090250;28;20093;-73
2024/03/02 10:34:13;;;;;;;5.80;1.00;;;12.90;94.60;;;;;;5100462;28;20035;-72
2024/03/02 10:36:43;;;;;;;3.65;1.30;;;13.00;94.60;;;;;;5100058;28;20035;-71
2024/03/02 10:39:09;;;;;;;1.25;0.80;;;13.00;95.00;;;;;;5099594;28;20035;-71
2024/03/02 10:41:36;;;;;;;4.20;1.27;;;12.90;94.70;;;;;;5096097;28;20036;-71
2024/03/02 10:44:03;;;;;;;2.08;1.30;;;13.00;94.90;;;;;;5102081;28;20031;-71
2024/03/02 10:46:30;;;;;;;2.40;0.90;;;13.00;95.00;;;;;;5093271;28;20036;-71
2024/03/02 10:48:59;;;;;;;4.68;1.30;;;13.00;95.00;;;;;;5091193;28;20097;-71
2024/03/02 10:51:31;;;;;;;3.42;1.17;;;13.00;95.50;;;;;;5095352;28;20507;-71
2024/03/02 10:53:58;;;;;;;2.47;1.20;;;13.00;95.20;;;;;;5093434;28;20166;-72
2024/03/02 10:56:44;;;;;;;2.80;1.25;;;13.00;95.50;;;;;;5097780;28;20059;-71
2024/03/02 10:59:33;;;;;;;3.00;1.50;;;13.00;94.70;;;;;;5093501;28;20481;-72
2024/03/02 11:02:00;;;;;;;2.63;0.88;;;13.00;95.10;;;;;;5089036;28;20061;-71
2024/03/02 11:04:28;;;;;;;1.48;1.10;;;13.10;94.90;;;;;;5100777;28;20032;-71
2024/03/02 11:07:04;;;;;;;3.17;1.70;;;13.20;95.40;;;;;;5098914;28;20116;-70
2024/03/02 11:09:33;;;;;;;2.10;1.30;;;13.20;94.80;;;;;;5094007;28;20035;-70
2024/03/02 11:12:27;;;;;;;4.88;1.40;;;13.30;95.00;;;;;;5099846;27;20110;-70
2024/03/02 11:14:55;;;;;;;9.30;1.25;;;13.30;95.10;;;;;;5093800;28;20074;-70
2024/03/02 11:17:24;;;;;;;0.93;0.63;;;13.30;95.30;;;;;;5093857;28;20081;-71
2024/03/02 11:19:53;;;;;;;1.67;1.00;;;13.30;95.20;;;;;;5089370;28;20122;-71
2024/03/02 11:22:19;;;;;;;1.58;1.02;;;13.30;95.30;;;;;;5104757;28;20031;-72
2024/03/02 11:24:52;;;;;;;0.50;0.50;;;13.30;94.80;;;;;;5094521;28;20067;-71
2024/03/02 11:27:45;;;;;;;3.27;1.20;;;13.30;95.10;;;;;;5093900;28;20028;-70
2024/03/02 11:30:42;;;;;;;2.53;1.00;;;13.40;95.00;;;;;;5099605;28;20050;-70
2024/03/02 11:33:11;;;;;;;3.25;1.23;;;13.40;95.60;;;;;;5081145;28;20273;-75
2024/03/02 11:35:38;;;;;;;4.00;1.73;;;13.40;95.20;;;;;;5096342;28;20036;-70
2024/03/02 11:38:04;;;;;;;5.00;1.20;;;13.50;95.40;;;;;;5089286;28;20054;-71
2024/03/02 11:40:30;;;;;;;0.90;0.80;;;13.50;95.30;;;;;;5103076;28;20150;-70
2024/03/02 11:42:58;;;;;;;0.52;0.52;;;13.60;95.30;;;;;;5097332;28;20035;-70
2024/03/02 11:45:25;;;;;;;5.18;0.90;;;13.50;95.30;;;;;;5096948;28;20114;-70
2024/03/02 11:47:55;;;;;;;2.10;1.40;;;13.50;95.30;;;;;;5096318;28;20040;-71
2024/03/02 11:50:30;;;;;;;1.77;0.82;;;13.50;95.30;;;;;;5098949;28;20498;-70
2024/03/02 11:52:58;;;;;;;5.32;1.67;;;13.60;95.20;;;;;;5100286;28;20034;-71
2024/03/02 11:55:25;;;;;;;1.25;0.68;;;13.70;95.30;;;;;;5088467;28;20039;-71
2024/03/02 11:57:52;;;;;;;3.95;1.27;;;13.70;95.30;;;;;;5094442;28;20036;-70
2024/03/02 12:00:22;;;;;;;3.67;1.50;;;13.70;95.50;;;;;;5101150;28;20348;-71
2024/03/02 12:03:00;;;;;;;3.03;1.27;;;13.80;95.90;;;;;;5090572;28;20031;-70
2024/03/02 12:05:27;;;;;;;2.42;1.38;;;13.70;95.20;;;;;;5104541;28;20034;-70
2024/03/02 12:08:06;;;;;;;3.53;1.60;;;13.80;95.60;;;;;;5093536;28;20475;-70
2024/03/02 12:10:33;;;;;;;2.83;1.30;;;13.80;95.60;;;;;;5096022;27;20042;-71
2024/03/02 12:13:07;;;;;;;2.30;1.70;;;13.80;95.20;;;;;;5097960;28;20027;-71
2024/03/02 12:15:40;;;;;;;4.57;2.13;;;13.90;95.40;;;;;;5092998;28;21738;-71
2024/03/02 12:18:06;;;;;;;9.32;2.20;;;13.90;95.40;;;;;;5087256;28;20040;-70
2024/03/02 12:20:33;;;;;;;3.17;1.92;;;13.90;95.40;;;;;;5093672;28;20724;-70
2024/03/02 12:23:00;;;;;;;2.55;1.70;;;13.90;95.30;;;;;;5090765;28;20487;-70
2024/03/02 12:25:27;;;;;;;11.25;2.25;;;13.90;95.20;;;;;;5090320;28;20032;-70
2024/03/02 12:27:57;;;;;;;2.65;1.45;;;14.00;95.20;;;;;;5097750;28;20035;-71
2024/03/02 12:30:23;;;;;;;5.45;1.50;;;14.00;95.50;;;;;;5096174;28;20652;-71
2024/03/02 12:32:59;;;;;;;2.83;1.85;;;14.10;95.40;;;;;;5093580;28;20535;-80
2024/03/02 12:35:25;;;;;;;3.33;1.80;;;14.20;95.00;;;;;;5096424;28;20089;-80
2024/03/02 12:37:52;;;;;;;5.82;2.25;;;14.20;95.00;;;;;;5090083;28;20464;-70
2024/03/02 12:40:22;;;;;;;1.10;1.02;;;14.30;95.70;;;;;;5097702;28;20095;-71
2024/03/02 12:42:49;;;;;;;6.72;1.60;;;14.40;96.40;;;;;;5091008;28;20118;-71
2024/03/02 12:45:15;;;;;;;4.75;2.15;;;14.40;96.30;;;;;;5087488;28;20059;-71
2024/03/02 12:47:42;;;;;;;3.63;1.90;;;14.50;96.10;;;;;;5098814;28;20027;-72
2024/03/02 12:50:09;;;;;;;5.03;1.90;;;14.50;95.50;;;;;;5088829;28;20423;-72